Time;durP1;ratioP1;P1;durP2;ratioP2;P2;SDS_P1;SDS_P2;PMS_P1;PMS_P2;Temp;Humidity;BMP_temperature;BMP_pressure;BME280_temperature;BME280_humidity;BME280_pressure;Samples;Min_cycle;Max_cycle;Signal;HPM_P1;HPM_P2
2021/09/21 00:02:09;;;;;;;3.25;1.67;;;11.20;95.60;;;;;;5032805;28;20041;-81
2021/09/21 00:04:35;;;;;;;3.85;1.67;;;11.10;95.40;;;;;;5032659;28;20484;-81
2021/09/21 00:07:01;;;;;;;1.70;1.60;;;11.20;95.50;;;;;;5032545;28;20064;-81
2021/09/21 00:09:26;;;;;;;1.90;1.67;;;11.20;95.50;;;;;;5032398;28;20129;-82
2021/09/21 00:11:52;;;;;;;2.50;2.10;;;11.10;95.50;;;;;;5032260;28;20025;-80
2021/09/21 00:14:19;;;;;;;2.80;2.15;;;11.10;95.20;;;;;;5031513;28;20383;-81
2021/09/21 00:16:44;;;;;;;2.47;2.10;;;11.10;95.40;;;;;;5033971;28;20499;-80
2021/09/21 00:19:11;;;;;;;2.60;2.17;;;11.00;95.40;;;;;;5033961;28;20066;-80
2021/09/21 00:21:37;;;;;;;2.83;2.08;;;11.00;95.80;;;;;;5033605;28;20067;-80
2021/09/21 00:24:04;;;;;;;3.03;2.25;;;11.00;95.90;;;;;;5034216;28;20038;-80
2021/09/21 00:26:31;;;;;;;2.85;2.30;;;10.90;96.00;;;;;;5049600;28;20106;-80
2021/09/21 00:28:56;;;;;;;1.98;1.77;;;11.00;96.00;;;;;;5033693;28;20098;-80
2021/09/21 00:31:23;;;;;;;2.45;1.88;;;10.90;96.20;;;;;;5035882;28;20041;-80
2021/09/21 00:34:04;;;;;;;3.33;2.03;;;10.90;96.30;;;;;;5035539;28;20037;-80
2021/09/21 00:36:30;;;;;;;2.13;1.70;;;10.80;96.50;;;;;;5035155;28;20053;-79
2021/09/21 00:38:56;;;;;;;3.13;1.90;;;10.80;96.70;;;;;;5037854;28;20026;-82
2021/09/21 00:41:23;;;;;;;3.25;2.00;;;10.80;96.80;;;;;;5038334;28;20064;-79
2021/09/21 00:43:49;;;;;;;2.05;1.80;;;10.80;96.80;;;;;;5038273;28;20037;-81
2021/09/21 00:46:14;;;;;;;1.90;1.70;;;10.70;97.00;;;;;;5042220;28;20029;-80
2021/09/21 00:48:40;;;;;;;2.10;1.88;;;10.70;97.10;;;;;;5034928;28;20030;-80
2021/09/21 00:51:06;;;;;;;2.13;1.70;;;10.70;97.30;;;;;;5033883;28;20455;-80
2021/09/21 00:53:31;;;;;;;2.53;1.80;;;10.70;97.30;;;;;;5034269;28;20411;-79
2021/09/21 00:55:58;;;;;;;3.17;1.92;;;10.70;97.40;;;;;;5033479;28;20063;-81
2021/09/21 00:58:24;;;;;;;2.13;1.85;;;10.60;97.50;;;;;;5033783;28;20105;-79
2021/09/21 01:00:50;;;;;;;3.10;2.30;;;10.60;97.80;;;;;;5033338;28;20057;-81
2021/09/21 01:03:20;;;;;;;2.05;1.80;;;10.60;97.80;;;;;;5032453;28;20034;-81
2021/09/21 01:05:46;;;;;;;2.50;1.92;;;10.60;97.90;;;;;;5033748;28;20026;-80
2021/09/21 01:08:12;;;;;;;2.25;1.85;;;10.50;98.00;;;;;;5034042;28;20029;-80
2021/09/21 01:10:37;;;;;;;2.92;2.10;;;10.50;98.00;;;;;;5033974;28;20033;-80
2021/09/21 01:13:04;;;;;;;2.30;1.73;;;10.50;98.20;;;;;;5034071;28;20456;-79
2021/09/21 01:15:30;;;;;;;1.73;1.50;;;10.50;98.30;;;;;;5033732;28;20032;-79
2021/09/21 01:17:57;;;;;;;1.55;1.42;;;10.50;98.90;;;;;;5033299;28;20112;-80
2021/09/21 01:20:23;;;;;;;1.65;1.50;;;10.50;98.40;;;;;;5033178;28;20540;-81
2021/09/21 01:22:50;;;;;;;1.65;1.20;;;10.40;98.60;;;;;;5036075;28;20057;-80
2021/09/21 01:25:15;;;;;;;1.00;0.90;;;10.50;98.50;;;;;;5037534;28;20033;-81
2021/09/21 01:27:41;;;;;;;1.35;1.20;;;10.50;98.60;;;;;;5037341;28;20025;-80
2021/09/21 01:30:11;;;;;;;1.27;1.17;;;10.50;98.60;;;;;;5037471;28;20033;-80
2021/09/21 01:32:37;;;;;;;1.05;0.95;;;10.50;98.50;;;;;;5037130;28;20112;-81
2021/09/21 01:35:04;;;;;;;1.02;0.93;;;10.50;98.50;;;;;;5035471;28;20482;-80
2021/09/21 01:37:30;;;;;;;1.95;1.02;;;10.40;98.70;;;;;;5036929;28;20109;-80
2021/09/21 01:39:56;;;;;;;0.95;0.95;;;10.50;98.70;;;;;;5035093;28;20120;-81
2021/09/21 01:42:22;;;;;;;1.10;1.00;;;10.40;98.60;;;;;;5036747;28;20036;-80
2021/09/21 01:44:48;;;;;;;0.95;0.93;;;10.40;98.70;;;;;;5036527;28;20036;-81
2021/09/21 01:47:16;;;;;;;0.60;0.60;;;10.40;98.90;;;;;;5034988;28;20034;-81
2021/09/21 01:52:13;;;;;;;0.70;0.70;;;10.30;99.10;;;;;;5036456;28;20091;-81
2021/09/21 02:00:08;;;;;;;1.10;0.85;;;10.20;99.80;;;;;;5042466;28;20068;-80
2021/09/21 02:02:34;;;;;;;0.90;0.82;;;10.10;99.90;;;;;;5059257;28;20037;-80
2021/09/21 02:04:59;;;;;;;0.60;0.60;;;10.10;99.90;;;;;;5036161;28;20463;-82
2021/09/21 02:07:26;;;;;;;0.60;0.60;;;10.10;99.90;;;;;;5051332;28;20479;-81
2021/09/21 02:09:52;;;;;;;0.50;0.50;;;10.00;99.90;;;;;;5035173;28;20032;-81
2021/09/21 02:12:18;;;;;;;0.43;0.43;;;10.00;99.90;;;;;;5035962;28;20030;-80
2021/09/21 02:14:43;;;;;;;0.70;0.70;;;9.90;99.90;;;;;;5034815;28;20037;-80
2021/09/21 02:17:10;;;;;;;0.80;0.57;;;9.90;99.90;;;;;;5035210;28;20355;-80
2021/09/21 02:19:37;;;;;;;0.60;0.60;;;9.90;99.90;;;;;;5051511;28;20030;-80
2021/09/21 02:22:03;;;;;;;0.30;0.30;;;9.90;99.90;;;;;;5051529;28;20099;-80
2021/09/21 02:24:29;;;;;;;0.88;0.52;;;9.80;99.90;;;;;;5035170;28;20447;-81
2021/09/21 02:26:54;;;;;;;0.70;0.50;;;9.80;99.90;;;;;;5036069;28;20068;-83
2021/09/21 02:29:21;;;;;;;0.88;0.40;;;9.80;99.90;;;;;;5034727;28;20033;-80
2021/09/21 02:31:47;;;;;;;0.57;0.50;;;9.80;99.90;;;;;;5051418;28;20137;-81
2021/09/21 02:34:15;;;;;;;0.35;0.35;;;9.80;99.90;;;;;;5034846;28;20025;-80
2021/09/21 02:36:42;;;;;;;0.80;0.57;;;9.80;99.90;;;;;;5051218;28;20479;-81
2021/09/21 02:39:11;;;;;;;0.60;0.60;;;9.90;99.90;;;;;;5035871;28;20037;-81
2021/09/21 02:41:37;;;;;;;1.35;1.25;;;9.90;99.90;;;;;;5035116;28;20069;-81
2021/09/21 02:44:03;;;;;;;1.35;1.25;;;9.80;99.90;;;;;;5051129;28;20029;-80
2021/09/21 02:46:29;;;;;;;1.30;1.20;;;9.80;99.90;;;;;;5034598;28;20349;-79
2021/09/21 02:48:55;;;;;;;1.35;1.23;;;9.80;99.90;;;;;;5036004;28;20072;-79
2021/09/21 02:51:21;;;;;;;1.40;1.30;;;9.70;99.90;;;;;;5035891;28;20025;-79
2021/09/21 02:53:46;;;;;;;1.50;1.40;;;9.70;99.90;;;;;;5035842;28;20147;-80
2021/09/21 02:56:14;;;;;;;2.05;1.60;;;9.60;99.90;;;;;;5035460;28;20022;-80
2021/09/21 02:58:41;;;;;;;2.85;2.10;;;9.60;99.90;;;;;;5035912;28;20033;-80
2021/09/21 03:01:07;;;;;;;2.20;2.00;;;9.60;99.90;;;;;;5035772;28;20076;-79
2021/09/21 03:03:41;;;;;;;2.35;1.90;;;9.60;99.90;;;;;;5034092;28;20468;-81
2021/09/21 03:06:17;;;;;;;2.15;1.90;;;9.50;99.90;;;;;;5035662;28;20041;-81
2021/09/21 03:08:43;;;;;;;2.00;1.90;;;9.50;99.90;;;;;;5035468;28;20025;-80
2021/09/21 03:11:19;;;;;;;2.40;2.03;;;9.50;99.90;;;;;;5050499;28;20036;-81
2021/09/21 03:18:56;;;;;;;2.33;2.00;;;9.50;99.90;;;;;;5035584;28;20036;-80
2021/09/21 03:21:23;;;;;;;3.38;2.45;;;9.50;99.90;;;;;;5050426;28;20037;-80
2021/09/21 03:23:48;;;;;;;3.15;2.83;;;9.50;99.90;;;;;;5035017;28;20061;-80
2021/09/21 03:26:15;;;;;;;4.00;3.30;;;9.50;99.90;;;;;;5034928;28;20414;-81
2021/09/21 03:28:40;;;;;;;3.47;3.10;;;9.40;99.90;;;;;;5050404;28;20030;-80
2021/09/21 03:31:06;;;;;;;4.05;3.50;;;9.40;99.90;;;;;;5034549;28;20092;-81
2021/09/21 03:33:32;;;;;;;3.97;3.35;;;9.40;99.90;;;;;;5034452;28;20025;-80
2021/09/21 03:35:59;;;;;;;6.55;3.78;;;9.40;99.90;;;;;;5049437;28;20084;-80
2021/09/21 03:38:25;;;;;;;4.88;3.60;;;9.40;99.90;;;;;;5049935;28;20040;-82
2021/09/21 03:40:52;;;;;;;4.72;3.53;;;9.30;99.90;;;;;;5049599;28;20395;-79
2021/09/21 03:43:17;;;;;;;4.95;4.03;;;9.30;99.90;;;;;;5034501;28;20032;-81
2021/09/21 03:45:43;;;;;;;4.47;3.92;;;9.30;99.90;;;;;;5034387;28;20100;-80
2021/09/21 03:48:09;;;;;;;5.65;4.10;;;9.20;99.90;;;;;;5033341;28;20501;-81
2021/09/21 03:50:37;;;;;;;5.22;4.18;;;9.20;99.90;;;;;;5034728;28;20108;-78
2021/09/21 03:53:06;;;;;;;5.95;4.60;;;9.20;99.90;;;;;;5034549;28;20040;-81
2021/09/21 03:55:32;;;;;;;5.68;4.20;;;9.10;99.90;;;;;;5033334;28;20028;-80
2021/09/21 03:57:58;;;;;;;6.50;4.78;;;9.10;99.90;;;;;;5032969;28;20021;-83
2021/09/21 04:00:26;;;;;;;5.90;4.68;;;9.10;99.90;;;;;;5049532;28;20140;-83
2021/09/21 04:02:52;;;;;;;5.75;4.65;;;9.10;99.90;;;;;;5034553;28;20037;-85
2021/09/21 04:05:18;;;;;;;5.55;4.40;;;9.00;99.90;;;;;;5033067;28;20175;-81
2021/09/21 04:07:48;;;;;;;8.85;4.80;;;9.00;99.90;;;;;;5034436;28;20065;-81
2021/09/21 04:10:14;;;;;;;5.68;4.53;;;9.00;99.90;;;;;;5032935;28;20036;-80
2021/09/21 04:12:40;;;;;;;5.95;4.93;;;9.10;99.90;;;;;;5032832;28;20026;-81
2021/09/21 04:15:06;;;;;;;6.35;5.00;;;9.00;99.90;;;;;;5049459;28;20116;-80
2021/09/21 04:17:33;;;;;;;6.78;4.65;;;9.10;99.90;;;;;;5049237;28;20113;-79
2021/09/21 04:19:59;;;;;;;6.55;4.90;;;9.10;99.90;;;;;;5032688;28;20535;-82
2021/09/21 04:22:27;;;;;;;6.22;4.80;;;9.10;99.90;;;;;;5032558;28;20068;-81
2021/09/21 04:24:54;;;;;;;6.13;4.60;;;9.10;99.90;;;;;;5032780;28;20037;-80
2021/09/21 04:27:19;;;;;;;5.68;4.15;;;9.10;99.90;;;;;;5049148;28;20426;-82
2021/09/21 04:29:46;;;;;;;6.10;3.67;;;9.00;99.90;;;;;;5034424;28;20029;-81
2021/09/21 04:32:15;;;;;;;4.15;3.20;;;9.00;99.90;;;;;;5032326;28;20468;-81
2021/09/21 04:34:42;;;;;;;5.07;3.17;;;9.00;99.90;;;;;;5032337;28;20480;-84
2021/09/21 04:37:14;;;;;;;5.55;3.30;;;9.00;99.90;;;;;;5032853;28;20041;-84
2021/09/21 04:39:41;;;;;;;3.72;2.90;;;9.00;99.90;;;;;;5030398;28;20064;-82
2021/09/21 04:42:08;;;;;;;4.78;3.17;;;9.00;99.90;;;;;;5031557;28;20025;-82
2021/09/21 04:44:36;;;;;;;3.75;2.90;;;9.00;99.90;;;;;;5046172;28;20075;-82
2021/09/21 04:47:03;;;;;;;4.82;3.10;;;9.00;99.90;;;;;;5046401;28;20029;-81
2021/09/21 04:49:28;;;;;;;4.25;2.90;;;9.10;99.90;;;;;;5031429;28;20021;-82
2021/09/21 04:51:54;;;;;;;4.65;3.42;;;9.10;99.90;;;;;;5031250;28;20056;-82
2021/09/21 04:54:20;;;;;;;4.18;3.25;;;9.20;99.90;;;;;;5031733;28;20449;-82
2021/09/21 04:56:45;;;;;;;4.60;3.38;;;9.20;99.90;;;;;;5034228;28;20025;-83
2021/09/21 04:59:11;;;;;;;4.88;3.30;;;9.20;99.90;;;;;;5035824;28;20385;-84
2021/09/21 05:01:37;;;;;;;4.20;3.20;;;9.20;99.90;;;;;;5052561;28;20140;-82
2021/09/21 05:04:03;;;;;;;3.90;2.97;;;9.20;99.90;;;;;;5053176;28;20116;-82
2021/09/21 05:06:29;;;;;;;3.47;2.97;;;9.20;99.90;;;;;;5037249;28;20459;-83
2021/09/21 05:08:55;;;;;;;3.95;3.30;;;9.20;99.90;;;;;;5052819;28;20423;-82
2021/09/21 05:11:20;;;;;;;4.35;3.13;;;9.10;99.90;;;;;;5037759;28;20057;-82
2021/09/21 05:13:46;;;;;;;3.08;2.70;;;9.20;99.90;;;;;;5052574;28;20021;-80
2021/09/21 05:16:12;;;;;;;17.80;15.35;;;9.20;99.90;;;;;;5036018;28;20445;-82
2021/09/21 05:18:37;;;;;;;56.35;36.85;;;9.20;99.90;;;;;;5052965;28;20033;-81
2021/09/21 05:21:03;;;;;;;20.52;14.52;;;9.20;99.90;;;;;;5053071;28;20045;-83
2021/09/21 05:23:29;;;;;;;13.15;9.82;;;9.30;99.90;;;;;;5054076;28;20059;-88
2021/09/21 05:25:55;;;;;;;10.23;7.18;;;9.30;99.90;;;;;;5044885;28;20036;-85
2021/09/21 05:28:20;;;;;;;7.47;5.15;;;9.40;99.90;;;;;;5059746;28;20028;-83
2021/09/21 05:30:46;;;;;;;6.38;4.38;;;9.40;99.90;;;;;;5049387;28;20029;-85
2021/09/21 05:33:12;;;;;;;5.53;3.72;;;9.40;99.90;;;;;;5077295;28;20021;-85
2021/09/21 05:35:38;;;;;;;3.80;3.05;;;9.50;99.90;;;;;;5077060;28;20009;-86
2021/09/21 05:38:03;;;;;;;4.60;3.20;;;9.50;99.90;;;;;;5061190;28;20022;-81
2021/09/21 05:40:29;;;;;;;4.13;2.90;;;9.60;99.90;;;;;;5059800;28;20029;-81
2021/09/21 05:42:55;;;;;;;4.72;2.88;;;9.70;99.30;;;;;;5054663;28;20029;-82
2021/09/21 05:45:22;;;;;;;4.20;3.13;;;9.70;99.00;;;;;;5056651;28;20020;-83
2021/09/21 05:47:48;;;;;;;6.30;3.65;;;9.70;98.30;;;;;;5073549;28;20057;-82
2021/09/21 05:50:15;;;;;;;196.32;136.63;;;9.70;97.40;;;;;;5065220;28;20426;-84
2021/09/21 05:52:41;;;;;;;281.92;196.38;;;9.70;97.50;;;;;;5040088;28;20025;-84
2021/09/21 05:55:08;;;;;;;126.43;87.63;;;9.80;97.20;;;;;;5037549;28;20037;-84
2021/09/21 05:57:34;;;;;;;64.22;43.78;;;9.90;97.40;;;;;;5036550;28;20021;-85
2021/09/21 06:00:03;;;;;;;33.58;23.90;;;9.90;96.80;;;;;;5037440;28;20049;-92
2021/09/21 06:02:30;;;;;;;18.23;13.27;;;9.90;95.90;;;;;;5036938;28;20052;-85
2021/09/21 06:04:56;;;;;;;12.35;8.82;;;9.90;95.80;;;;;;5036668;28;20030;-84
2021/09/21 06:07:21;;;;;;;8.63;6.30;;;9.90;96.20;;;;;;5049540;28;20491;-84
2021/09/21 06:09:47;;;;;;;6.55;4.70;;;9.90;96.60;;;;;;5034977;28;20525;-83
2021/09/21 06:12:12;;;;;;;7.30;3.80;;;10.00;96.70;;;;;;5033374;28;20034;-84
2021/09/21 06:14:38;;;;;;;5.53;3.10;;;10.10;96.80;;;;;;5034746;28;20034;-84
2021/09/21 06:17:04;;;;;;;4.38;3.00;;;10.20;96.70;;;;;;5048519;28;20025;-85
2021/09/21 06:19:30;;;;;;;3.92;2.80;;;10.30;96.20;;;;;;5031241;28;20026;-85
2021/09/21 06:21:56;;;;;;;7.85;5.85;;;10.40;95.90;;;;;;5031825;28;20064;-85
2021/09/21 06:24:22;;;;;;;13.10;9.73;;;10.50;94.90;;;;;;5034121;28;20060;-84
2021/09/21 06:26:49;;;;;;;12.48;9.57;;;10.50;95.00;;;;;;5034317;28;20072;-84
2021/09/21 06:29:15;;;;;;;10.32;8.13;;;10.70;95.20;;;;;;5034357;28;20021;-85
2021/09/21 06:31:42;;;;;;;6.95;5.07;;;10.80;94.80;;;;;;5035653;28;20120;-82
2021/09/21 06:34:08;;;;;;;5.28;3.63;;;10.90;94.00;;;;;;5053325;28;20076;-82
2021/09/21 06:36:34;;;;;;;4.35;3.13;;;11.00;92.60;;;;;;5051889;28;20372;-83
2021/09/21 06:39:00;;;;;;;3.92;3.08;;;11.10;92.40;;;;;;5036210;28;20093;-83
2021/09/21 06:41:25;;;;;;;3.72;2.60;;;11.10;91.40;;;;;;5035969;28;20029;-82
2021/09/21 06:43:51;;;;;;;3.20;2.22;;;11.10;90.70;;;;;;5035303;28;20379;-82
2021/09/21 06:46:17;;;;;;;2.83;2.30;;;11.10;90.10;;;;;;5035899;28;20038;-82
2021/09/21 06:48:42;;;;;;;2.80;2.20;;;11.00;88.80;;;;;;5035859;28;20017;-82
2021/09/21 06:51:09;;;;;;;4.38;2.38;;;10.90;88.50;;;;;;5035479;28;20104;-82
2021/09/21 06:53:35;;;;;;;4.45;3.15;;;11.00;88.80;;;;;;5035830;28;20029;-84
2021/09/21 06:56:00;;;;;;;3.20;2.45;;;11.00;88.60;;;;;;5034510;28;20391;-82
2021/09/21 06:58:26;;;;;;;3.35;2.30;;;11.00;87.00;;;;;;5034670;28;20021;-81
2021/09/21 07:00:52;;;;;;;4.72;2.38;;;10.90;84.30;;;;;;5050493;28;20045;-82
2021/09/21 07:03:18;;;;;;;2.50;2.00;;;10.90;85.60;;;;;;5035349;28;20041;-82
2021/09/21 07:05:44;;;;;;;2.40;1.85;;;10.90;86.20;;;;;;5051342;28;20468;-81
2021/09/21 07:08:09;;;;;;;3.00;1.92;;;11.00;85.50;;;;;;5034312;28;20026;-83
2021/09/21 07:10:35;;;;;;;2.75;1.80;;;11.00;85.50;;;;;;5035524;28;20125;-81
2021/09/21 07:13:01;;;;;;;2.00;1.77;;;11.10;85.50;;;;;;5035625;28;20033;-80
2021/09/21 07:15:27;;;;;;;2.30;1.90;;;11.20;84.70;;;;;;5035175;28;20033;-80
2021/09/21 07:17:54;;;;;;;2.42;1.80;;;11.40;85.00;;;;;;5034928;28;20018;-81
2021/09/21 07:20:25;;;;;;;2.28;1.58;;;11.50;85.50;;;;;;5049939;28;20132;-82
2021/09/21 07:22:51;;;;;;;;;;;11.70;82.70;;;;;;5035982;28;20062;-82
2021/09/21 07:25:20;;;;;;;3.17;1.50;;;11.80;78.50;;;;;;5035443;28;19905;-81
2021/09/21 07:27:47;;;;;;;2.15;1.55;;;12.00;81.10;;;;;;5033623;28;20021;-82
2021/09/21 07:30:13;;;;;;;2.30;1.63;;;11.90;79.20;;;;;;5034885;28;20033;-82
2021/09/21 07:32:39;;;;;;;2.50;1.73;;;11.90;79.40;;;;;;5034782;28;20376;-82
2021/09/21 07:35:06;;;;;;;3.45;1.67;;;11.70;79.20;;;;;;5034891;28;20022;-81
2021/09/21 07:37:31;;;;;;;2.17;1.60;;;11.70;79.70;;;;;;5034564;28;20508;-81
2021/09/21 07:39:57;;;;;;;1.50;1.40;;;11.70;79.90;;;;;;5034627;28;20108;-82
2021/09/21 07:42:23;;;;;;;1.88;1.55;;;11.70;80.10;;;;;;5034827;28;20029;-81
2021/09/21 07:44:53;;;;;;;1.77;1.60;;;11.80;80.80;;;;;;5033548;28;20380;-82
2021/09/21 07:47:20;;;;;;;1.85;1.40;;;11.90;79.40;;;;;;5034552;28;20025;-81
2021/09/21 07:49:46;;;;;;;2.47;1.40;;;12.00;79.00;;;;;;5034516;28;20028;-81
2021/09/21 07:52:13;;;;;;;1.42;1.30;;;12.00;78.40;;;;;;5034585;28;20025;-83
2021/09/21 07:54:39;;;;;;;1.45;1.30;;;12.00;78.30;;;;;;5034651;28;20419;-83
2021/09/21 07:57:05;;;;;;;3.75;1.80;;;12.10;78.10;;;;;;5034746;28;20025;-82
2021/09/21 07:59:31;;;;;;;2.75;1.40;;;12.10;76.50;;;;;;5034104;28;20045;-81
2021/09/21 08:01:57;;;;;;;2.25;1.60;;;12.20;76.60;;;;;;5034266;28;20049;-81
2021/09/21 08:04:22;;;;;;;1.40;1.30;;;12.20;76.10;;;;;;5034152;28;20026;-81
2021/09/21 08:06:48;;;;;;;1.60;1.30;;;12.20;76.10;;;;;;5032981;28;20025;-82
2021/09/21 08:09:13;;;;;;;2.00;1.75;;;12.20;76.30;;;;;;5033051;28;20029;-82
2021/09/21 08:11:39;;;;;;;2.05;1.55;;;12.10;75.30;;;;;;5034180;28;20026;-83
2021/09/21 08:14:06;;;;;;;1.55;1.42;;;12.10;76.10;;;;;;5033051;28;20128;-84
2021/09/21 08:16:33;;;;;;;2.42;1.55;;;12.10;76.60;;;;;;5050005;28;20460;-83
2021/09/21 08:19:00;;;;;;;2.55;1.60;;;12.10;76.80;;;;;;5049639;28;20080;-82
2021/09/21 08:21:26;;;;;;;1.73;1.33;;;12.20;75.90;;;;;;5048917;28;20037;-82
2021/09/21 08:23:53;;;;;;;1.88;1.55;;;12.30;76.20;;;;;;5034007;28;20465;-82
2021/09/21 08:26:19;;;;;;;2.40;1.58;;;12.30;75.80;;;;;;5049811;28;20483;-82
2021/09/21 08:28:44;;;;;;;1.50;1.40;;;12.30;75.40;;;;;;5035205;28;20026;-82
2021/09/21 08:31:10;;;;;;;1.58;1.30;;;12.20;74.50;;;;;;5035468;28;20478;-84
2021/09/21 08:33:36;;;;;;;2.38;1.10;;;12.00;73.90;;;;;;5034056;28;20092;-82
2021/09/21 08:36:02;;;;;;;1.90;1.30;;;11.80;74.40;;;;;;5033861;28;20105;-83
2021/09/21 08:38:27;;;;;;;1.83;1.30;;;11.70;75.10;;;;;;5033657;28;20526;-82
2021/09/21 08:40:53;;;;;;;1.40;1.25;;;11.60;75.50;;;;;;5032515;28;20064;-83
2021/09/21 08:43:19;;;;;;;1.42;1.13;;;11.60;76.40;;;;;;5049249;28;20025;-82
2021/09/21 08:45:44;;;;;;;1.50;1.20;;;11.60;76.70;;;;;;5032450;28;20021;-83
2021/09/21 08:48:10;;;;;;;2.05;1.50;;;11.60;76.60;;;;;;5032324;28;20034;-83
2021/09/21 08:50:36;;;;;;;1.30;1.20;;;11.70;75.90;;;;;;5032960;28;20025;-82
2021/09/21 08:53:02;;;;;;;1.45;1.15;;;11.90;75.70;;;;;;5033760;28;20511;-82
2021/09/21 08:55:27;;;;;;;4.72;2.88;;;12.10;77.40;;;;;;5049164;28;20129;-83
2021/09/21 08:57:54;;;;;;;6.32;3.95;;;12.50;77.50;;;;;;5049291;28;20025;-83
2021/09/21 09:00:24;;;;;;;3.78;2.60;;;12.80;74.90;;;;;;5035234;28;20105;-84
2021/09/21 09:02:50;;;;;;;3.00;2.00;;;13.00;73.50;;;;;;5049150;28;20044;-83
2021/09/21 09:05:15;;;;;;;4.70;2.40;;;12.90;72.30;;;;;;5033853;28;20026;-82
2021/09/21 09:07:50;;;;;;;5.18;2.70;;;12.80;71.40;;;;;;5033963;28;20087;-81
2021/09/21 09:10:16;;;;;;;5.00;2.65;;;12.60;71.40;;;;;;5033510;28;20030;-82
2021/09/21 09:12:42;;;;;;;4.25;2.40;;;12.40;70.80;;;;;;5033866;28;20077;-83
2021/09/21 09:15:09;;;;;;;4.10;2.13;;;12.20;71.20;;;;;;5032399;28;20057;-83
2021/09/21 09:17:37;;;;;;;4.93;2.13;;;12.10;72.00;;;;;;5048978;28;20033;-82
2021/09/21 09:20:03;;;;;;;3.08;1.48;;;12.10;72.20;;;;;;5048883;28;20026;-82
2021/09/21 09:22:29;;;;;;;2.88;1.40;;;12.20;72.10;;;;;;5033713;28;20032;-84
2021/09/21 09:25:15;;;;;;;2.65;1.60;;;12.40;72.30;;;;;;5049305;28;20025;-82
2021/09/21 09:27:47;;;;;;;2.70;1.50;;;12.70;70.90;;;;;;5049370;28;20026;-82
2021/09/21 09:30:22;;;;;;;4.15;1.75;;;12.80;69.40;;;;;;5033575;28;20029;-82
2021/09/21 09:33:00;;;;;;;4.47;2.10;;;12.90;69.10;;;;;;5048822;28;20029;-82
2021/09/21 09:35:25;;;;;;;9.20;2.88;;;12.80;67.10;;;;;;5048658;28;20104;-81
2021/09/21 09:37:52;;;;;;;8.70;3.67;;;12.60;67.60;;;;;;5048641;28;20179;-82
2021/09/21 09:40:17;;;;;;;6.90;2.90;;;12.40;68.00;;;;;;5048314;28;20037;-82
2021/09/21 09:42:44;;;;;;;4.75;2.20;;;12.20;68.90;;;;;;5034838;28;20026;-81
2021/09/21 09:45:11;;;;;;;2.85;1.70;;;12.10;69.10;;;;;;5037263;28;20459;-81
2021/09/21 09:47:45;;;;;;;2.47;1.55;;;11.90;69.40;;;;;;5052014;28;20033;-83
2021/09/21 09:50:12;;;;;;;1.70;1.10;;;12.00;69.30;;;;;;5052165;28;20033;-83
2021/09/21 09:52:38;;;;;;;1.70;0.98;;;11.90;69.60;;;;;;5035825;28;20120;-81
2021/09/21 09:55:04;;;;;;;1.75;1.02;;;12.00;69.70;;;;;;5052021;28;20447;-83
2021/09/21 09:57:30;;;;;;;2.25;1.40;;;12.00;70.00;;;;;;5052450;28;20079;-84
2021/09/21 09:59:57;;;;;;;4.43;2.30;;;12.00;69.60;;;;;;5036603;28;20052;-82
2021/09/21 10:02:23;;;;;;;6.97;3.00;;;12.00;69.30;;;;;;5051979;28;20033;-83
2021/09/21 10:04:49;;;;;;;5.47;1.88;;;11.80;69.50;;;;;;5036544;28;20026;-82
2021/09/21 10:07:15;;;;;;;2.10;1.38;;;11.70;69.80;;;;;;5036449;28;20426;-82
2021/09/21 10:09:42;;;;;;;5.32;2.38;;;11.50;70.20;;;;;;5035732;28;20021;-82
2021/09/21 10:12:08;;;;;;;5.43;2.40;;;11.40;70.50;;;;;;5036566;28;20030;-82
2021/09/21 10:14:34;;;;;;;6.93;2.30;;;11.20;70.70;;;;;;5035392;28;20380;-82
2021/09/21 10:17:04;;;;;;;4.35;2.17;;;11.10;71.20;;;;;;5035107;28;20431;-82
2021/09/21 10:19:31;;;;;;;4.05;1.75;;;11.00;72.00;;;;;;5035125;28;20030;-82
2021/09/21 10:22:01;;;;;;;5.00;1.75;;;11.00;72.20;;;;;;5051429;28;20037;-83
2021/09/21 10:24:48;;;;;;;5.30;1.70;;;11.00;72.40;;;;;;5051610;28;20033;-82
2021/09/21 10:27:18;;;;;;;18.90;12.90;;;11.00;72.60;;;;;;5036794;28;20025;-82
2021/09/21 10:30:00;;;;;;;6.13;3.30;;;11.10;72.90;;;;;;5036184;28;20143;-82
2021/09/21 10:32:26;;;;;;;4.75;2.20;;;11.20;73.00;;;;;;5051958;28;20053;-82
2021/09/21 10:34:52;;;;;;;2.35;1.90;;;11.20;72.90;;;;;;5051747;28;20029;-82
2021/09/21 10:37:20;;;;;;;2.00;1.20;;;11.30;73.30;;;;;;5036474;28;20072;-80
2021/09/21 10:39:46;;;;;;;2.63;1.60;;;11.30;73.50;;;;;;5046354;28;20021;-82
2021/09/21 10:42:20;;;;;;;2.40;1.38;;;11.20;74.10;;;;;;5053374;28;20037;-81
2021/09/21 10:44:52;;;;;;;1.15;0.70;;;11.10;75.10;;;;;;5070795;28;20120;-81
2021/09/21 10:47:26;;;;;;;1.98;1.30;;;10.90;76.50;;;;;;5070961;28;20384;-80
2021/09/21 10:49:53;;;;;;;1.45;0.82;;;10.80;76.90;;;;;;5051028;28;20029;-82
2021/09/21 10:52:26;;;;;;;1.02;0.93;;;10.80;77.40;;;;;;5069323;28;20022;-81
2021/09/21 10:54:54;;;;;;;1.75;0.88;;;10.70;78.30;;;;;;5071873;28;20005;-82
2021/09/21 10:57:33;;;;;;;1.08;0.68;;;10.80;78.50;;;;;;5056880;28;20093;-82
2021/09/21 11:00:14;;;;;;;0.90;0.70;;;10.90;78.80;;;;;;5043973;28;20046;-82
2021/09/21 11:02:53;;;;;;;0.90;0.77;;;11.10;78.80;;;;;;5037027;28;20120;-81
2021/09/21 11:05:26;;;;;;;1.08;0.75;;;11.20;78.60;;;;;;5051260;28;20065;-83
2021/09/21 11:07:56;;;;;;;1.20;1.05;;;11.40;77.90;;;;;;5034134;28;20026;-83
2021/09/21 11:10:27;;;;;;;1.90;0.93;;;11.50;77.00;;;;;;5051365;28;20029;-84
2021/09/21 11:12:55;;;;;;;;;;;11.70;76.40;;;;;;5034973;28;20032;-83
2021/09/21 11:15:26;;;;;;;2.47;0.85;;;11.90;73.10;;;;;;5035288;28;19976;-84
2021/09/21 11:18:24;;;;;;;2.38;1.10;;;12.30;73.50;;;;;;5050469;28;20116;-82
2021/09/21 11:20:57;;;;;;;1.02;0.93;;;12.90;72.60;;;;;;5038965;28;20045;-82
2021/09/21 11:23:26;;;;;;;1.23;1.00;;;13.40;73.10;;;;;;5050496;28;20124;-82
2021/09/21 11:25:56;;;;;;;0.95;0.70;;;13.60;71.70;;;;;;5035130;28;20101;-82
2021/09/21 11:28:28;;;;;;;0.80;0.80;;;13.80;71.20;;;;;;5033949;28;20021;-83
2021/09/21 11:30:55;;;;;;;1.23;0.75;;;13.90;70.00;;;;;;5035066;28;20030;-83
2021/09/21 11:33:27;;;;;;;3.35;1.10;;;13.70;69.50;;;;;;5050249;28;20059;-84
2021/09/21 11:36:02;;;;;;;1.17;1.05;;;13.60;69.20;;;;;;5049923;28;20030;-83
2021/09/21 11:38:30;;;;;;;2.60;1.40;;;13.40;69.10;;;;;;5035252;28;20041;-82
2021/09/21 11:40:56;;;;;;;1.23;1.10;;;13.10;68.80;;;;;;5033382;28;20040;-82
2021/09/21 11:43:21;;;;;;;1.35;1.00;;;12.80;69.40;;;;;;5050056;28;20391;-82
2021/09/21 11:45:49;;;;;;;1.65;1.40;;;12.50;69.60;;;;;;5050279;28;20026;-83
2021/09/21 11:48:16;;;;;;;1.67;1.30;;;12.20;69.90;;;;;;5033705;28;20487;-82
2021/09/21 11:50:46;;;;;;;2.72;1.30;;;11.90;70.40;;;;;;5034920;28;20030;-82
2021/09/21 11:53:14;;;;;;;3.67;1.30;;;11.70;70.80;;;;;;5033506;28;20028;-82
2021/09/21 11:55:43;;;;;;;5.68;4.05;;;11.50;71.30;;;;;;5049926;28;20156;-84
2021/09/21 11:58:10;;;;;;;4.25;2.70;;;11.30;71.70;;;;;;5034699;28;20067;-83
2021/09/21 12:00:39;;;;;;;5.28;2.25;;;11.30;72.30;;;;;;5032984;28;20109;-82
2021/09/21 12:03:12;;;;;;;1.90;1.27;;;11.30;72.80;;;;;;5034347;28;20475;-83
2021/09/21 12:05:40;;;;;;;1.08;0.98;;;11.50;72.80;;;;;;5034616;28;20044;-82
2021/09/21 12:08:28;;;;;;;1.38;1.20;;;11.80;72.50;;;;;;5032954;28;20045;-82
2021/09/21 12:10:57;;;;;;;1.20;1.10;;;12.00;71.60;;;;;;5049273;28;20041;-81
2021/09/21 12:13:25;;;;;;;0.85;0.85;;;12.20;70.80;;;;;;5034129;28;20108;-82
2021/09/21 12:15:54;;;;;;;0.77;0.50;;;12.20;70.80;;;;;;5034202;28;20482;-82
2021/09/21 12:18:22;;;;;;;5.63;3.75;;;12.20;70.40;;;;;;5034031;28;20053;-83
2021/09/21 12:20:54;;;;;;;3.83;2.65;;;12.10;70.30;;;;;;5049218;28;20077;-83
2021/09/21 12:23:28;;;;;;;2.33;1.80;;;12.00;70.30;;;;;;5033865;28;20104;-83
2021/09/21 12:25:55;;;;;;;2.40;1.52;;;11.70;70.30;;;;;;5049415;28;20061;-83
2021/09/21 12:28:28;;;;;;;3.05;1.23;;;11.60;70.90;;;;;;5033849;28;20083;-83
2021/09/21 12:30:54;;;;;;;2.42;1.40;;;11.40;71.30;;;;;;5049478;28;20060;-83
2021/09/21 12:33:20;;;;;;;2.63;1.15;;;11.30;71.90;;;;;;5033799;28;20032;-82
2021/09/21 12:35:48;;;;;;;2.08;1.27;;;11.40;72.30;;;;;;5049328;28;20115;-81
2021/09/21 12:38:25;;;;;;;1.27;1.00;;;11.40;72.10;;;;;;5034045;28;20076;-81
2021/09/21 12:40:57;;;;;;;1.83;1.00;;;11.50;71.40;;;;;;5049136;28;20033;-81
2021/09/21 12:43:33;;;;;;;0.85;0.82;;;11.50;71.50;;;;;;5049349;28;20461;-82
2021/09/21 12:46:04;;;;;;;1.20;1.00;;;11.50;72.40;;;;;;5049621;28;20025;-82
2021/09/21 12:48:36;;;;;;;1.35;0.80;;;11.50;71.30;;;;;;5032741;28;20108;-82
2021/09/21 12:51:05;;;;;;;1.20;1.00;;;11.60;71.30;;;;;;5034093;28;20531;-83
2021/09/21 12:53:31;;;;;;;3.17;0.90;;;11.60;71.30;;;;;;5033474;28;20472;-83
2021/09/21 12:56:04;;;;;;;1.20;1.05;;;11.50;71.60;;;;;;5033716;28;20026;-83
2021/09/21 12:58:36;;;;;;;1.35;0.90;;;11.50;71.50;;;;;;5034209;28;20159;-82
2021/09/21 13:01:04;;;;;;;1.73;1.00;;;11.50;71.60;;;;;;5034017;28;20052;-83
2021/09/21 13:03:31;;;;;;;1.73;0.95;;;11.50;71.50;;;;;;5049008;28;20037;-81
2021/09/21 13:05:57;;;;;;;3.47;1.05;;;11.50;71.60;;;;;;5033409;28;20101;-82